sensor_id;sensor_type;location;lat;lon;timestamp;temperature;humidity
15900;DHT22;8048;50.644;6.184;2024-03-06T00:02:08;2.00;99.90
15900;DHT22;8048;50.644;6.184;2024-03-06T00:04:34;2.00;99.90
15900;DHT22;8048;50.644;6.184;2024-03-06T00:06:59;2.00;99.90
15900;DHT22;8048;50.644;6.184;2024-03-06T00:09:25;2.00;99.90
15900;DHT22;8048;50.644;6.184;2024-03-06T00:11:53;2.00;99.90
15900;DHT22;8048;50.644;6.184;2024-03-06T00:14:19;1.90;99.90
15900;DHT22;8048;50.644;6.184;2024-03-06T00:16:45;1.90;99.90
15900;DHT22;8048;50.644;6.184;2024-03-06T00:19:11;1.90;99.90
15900;DHT22;8048;50.644;6.184;2024-03-06T00:21:36;1.80;99.90
15900;DHT22;8048;50.644;6.184;2024-03-06T00:24:03;1.80;99.90
15900;DHT22;8048;50.644;6.184;2024-03-06T00:26:29;1.80;99.90
15900;DHT22;8048;50.644;6.184;2024-03-06T00:28:55;1.70;99.90
15900;DHT22;8048;50.644;6.184;2024-03-06T00:31:20;1.70;99.90
15900;DHT22;8048;50.644;6.184;2024-03-06T00:33:46;1.70;99.90
15900;DHT22;8048;50.644;6.184;2024-03-06T00:36:11;1.70;99.90
15900;DHT22;8048;50.644;6.184;2024-03-06T00:38:37;1.70;99.90
15900;DHT22;8048;50.644;6.184;2024-03-06T00:41:03;1.70;99.90
15900;DHT22;8048;50.644;6.184;2024-03-06T00:43:29;1.60;99.90
15900;DHT22;8048;50.644;6.184;2024-03-06T00:45:54;1.60;99.90
15900;DHT22;8048;50.644;6.184;2024-03-06T00:48:20;1.50;99.90
15900;DHT22;8048;50.644;6.184;2024-03-06T00:50:46;1.50;99.90
15900;DHT22;8048;50.644;6.184;2024-03-06T00:53:12;1.50;99.90
15900;DHT22;8048;50.644;6.184;2024-03-06T00:55:37;1.40;99.90
15900;DHT22;8048;50.644;6.184;2024-03-06T00:58:03;1.40;99.90
15900;DHT22;8048;50.644;6.184;2024-03-06T01:00:29;1.40;99.90
15900;DHT22;8048;50.644;6.184;2024-03-06T01:02:55;1.30;99.90
15900;DHT22;8048;50.644;6.184;2024-03-06T01:05:20;1.30;99.90
15900;DHT22;8048;50.644;6.184;2024-03-06T01:07:46;1.30;99.90
15900;DHT22;8048;50.644;6.184;2024-03-06T01:10:12;1.30;99.90
15900;DHT22;8048;50.644;6.184;2024-03-06T01:12:38;1.30;99.90
15900;DHT22;8048;50.644;6.184;2024-03-06T01:15:04;1.30;99.90
15900;DHT22;8048;50.644;6.184;2024-03-06T01:17:30;1.30;99.90
15900;DHT22;8048;50.644;6.184;2024-03-06T01:19:55;1.30;99.90
15900;DHT22;8048;50.644;6.184;2024-03-06T01:22:21;1.30;99.90
15900;DHT22;8048;50.644;6.184;2024-03-06T01:24:46;1.20;99.90
15900;DHT22;8048;50.644;6.184;2024-03-06T01:27:16;1.20;99.90
15900;DHT22;8048;50.644;6.184;2024-03-06T01:29:42;1.20;99.90
15900;DHT22;8048;50.644;6.184;2024-03-06T01:32:07;1.10;99.90
15900;DHT22;8048;50.644;6.184;2024-03-06T01:34:33;1.10;99.90
15900;DHT22;8048;50.644;6.184;2024-03-06T01:36:58;1.10;99.90
15900;DHT22;8048;50.644;6.184;2024-03-06T01:39:24;1.20;99.90
15900;DHT22;8048;50.644;6.184;2024-03-06T01:41:50;1.10;99.90
15900;DHT22;8048;50.644;6.184;2024-03-06T01:44:17;1.10;99.90
15900;DHT22;8048;50.644;6.184;2024-03-06T01:46:44;1.10;99.90
15900;DHT22;8048;50.644;6.184;2024-03-06T01:49:15;1.00;99.90
15900;DHT22;8048;50.644;6.184;2024-03-06T01:51:42;1.00;99.90
15900;DHT22;8048;50.644;6.184;2024-03-06T01:54:08;1.00;99.90
15900;DHT22;8048;50.644;6.184;2024-03-06T01:56:35;0.90;99.90
15900;DHT22;8048;50.644;6.184;2024-03-06T01:59:02;0.90;99.90
15900;DHT22;8048;50.644;6.184;2024-03-06T02:01:30;0.90;99.90
15900;DHT22;8048;50.644;6.184;2024-03-06T02:03:56;0.80;99.90
15900;DHT22;8048;50.644;6.184;2024-03-06T02:06:22;0.70;99.90
15900;DHT22;8048;50.644;6.184;2024-03-06T02:08:48;0.70;99.90
15900;DHT22;8048;50.644;6.184;2024-03-06T02:11:13;0.70;99.90
15900;DHT22;8048;50.644;6.184;2024-03-06T02:13:42;0.70;99.90
15900;DHT22;8048;50.644;6.184;2024-03-06T02:16:09;0.70;99.90
15900;DHT22;8048;50.644;6.184;2024-03-06T02:18:35;0.70;99.90
15900;DHT22;8048;50.644;6.184;2024-03-06T02:21:02;0.70;99.90
15900;DHT22;8048;50.644;6.184;2024-03-06T02:23:28;0.70;99.90
15900;DHT22;8048;50.644;6.184;2024-03-06T02:25:53;0.70;99.90
15900;DHT22;8048;50.644;6.184;2024-03-06T02:28:19;0.70;99.90
15900;DHT22;8048;50.644;6.184;2024-03-06T02:30:44;0.60;99.90
15900;DHT22;8048;50.644;6.184;2024-03-06T02:33:10;0.60;99.90
15900;DHT22;8048;50.644;6.184;2024-03-06T02:35:36;0.60;99.90
15900;DHT22;8048;50.644;6.184;2024-03-06T02:38:03;0.50;99.90
15900;DHT22;8048;50.644;6.184;2024-03-06T02:40:30;0.50;99.90
15900;DHT22;8048;50.644;6.184;2024-03-06T02:42:56;0.50;99.90
15900;DHT22;8048;50.644;6.184;2024-03-06T02:45:21;0.50;99.90
15900;DHT22;8048;50.644;6.184;2024-03-06T02:47:47;0.50;99.90
15900;DHT22;8048;50.644;6.184;2024-03-06T02:50:13;0.50;99.90
15900;DHT22;8048;50.644;6.184;2024-03-06T02:52:39;0.50;99.90
15900;DHT22;8048;50.644;6.184;2024-03-06T02:55:05;0.50;99.90
15900;DHT22;8048;50.644;6.184;2024-03-06T02:57:31;0.50;99.90
15900;DHT22;8048;50.644;6.184;2024-03-06T02:59:57;0.50;99.90
15900;DHT22;8048;50.644;6.184;2024-03-06T03:02:23;0.50;99.90
15900;DHT22;8048;50.644;6.184;2024-03-06T03:04:49;0.40;99.90
15900;DHT22;8048;50.644;6.184;2024-03-06T03:07:15;0.50;99.90
15900;DHT22;8048;50.644;6.184;2024-03-06T03:09:41;0.50;99.90
15900;DHT22;8048;50.644;6.184;2024-03-06T03:12:06;0.50;99.90
15900;DHT22;8048;50.644;6.184;2024-03-06T03:14:32;0.40;99.90
15900;DHT22;8048;50.644;6.184;2024-03-06T03:17:00;0.40;99.90
15900;DHT22;8048;50.644;6.184;2024-03-06T03:19:25;0.40;99.90
15900;DHT22;8048;50.644;6.184;2024-03-06T03:21:51;0.30;99.90
15900;DHT22;8048;50.644;6.184;2024-03-06T03:24:17;0.20;99.90
15900;DHT22;8048;50.644;6.184;2024-03-06T03:26:45;0.20;99.90
15900;DHT22;8048;50.644;6.184;2024-03-06T03:29:11;0.20;99.90
15900;DHT22;8048;50.644;6.184;2024-03-06T03:31:36;0.20;99.90
15900;DHT22;8048;50.644;6.184;2024-03-06T03:34:04;0.20;99.90
15900;DHT22;8048;50.644;6.184;2024-03-06T03:36:30;0.20;99.90
15900;DHT22;8048;50.644;6.184;2024-03-06T03:38:56;0.20;99.90
15900;DHT22;8048;50.644;6.184;2024-03-06T03:41:21;0.20;99.90
15900;DHT22;8048;50.644;6.184;2024-03-06T03:43:47;0.20;99.90
15900;DHT22;8048;50.644;6.184;2024-03-06T03:46:12;0.10;99.90
15900;DHT22;8048;50.644;6.184;2024-03-06T03:48:39;0.10;99.90
15900;DHT22;8048;50.644;6.184;2024-03-06T03:51:05;0.10;99.90
15900;DHT22;8048;50.644;6.184;2024-03-06T03:53:33;0.00;99.90
15900;DHT22;8048;50.644;6.184;2024-03-06T03:55:59;0.00;99.90
15900;DHT22;8048;50.644;6.184;2024-03-06T03:58:24;0.00;99.90
15900;DHT22;8048;50.644;6.184;2024-03-06T04:00:50;0.00;99.90
15900;DHT22;8048;50.644;6.184;2024-03-06T04:03:19;0.00;99.90
15900;DHT22;8048;50.644;6.184;2024-03-06T04:05:46;0.00;99.90
15900;DHT22;8048;50.644;6.184;2024-03-06T04:08:12;0.00;99.90
15900;DHT22;8048;50.644;6.184;2024-03-06T04:10:38;0.00;99.90
15900;DHT22;8048;50.644;6.184;2024-03-06T04:13:04;0.00;99.90
15900;DHT22;8048;50.644;6.184;2024-03-06T04:15:29;-0.10;99.90
15900;DHT22;8048;50.644;6.184;2024-03-06T04:17:55;0.00;99.90
15900;DHT22;8048;50.644;6.184;2024-03-06T04:20:21;0.00;99.90
15900;DHT22;8048;50.644;6.184;2024-03-06T04:22:47;0.00;99.90
15900;DHT22;8048;50.644;6.184;2024-03-06T04:25:15;0.00;99.90
15900;DHT22;8048;50.644;6.184;2024-03-06T04:27:41;0.00;99.90
15900;DHT22;8048;50.644;6.184;2024-03-06T04:30:07;0.00;99.90
15900;DHT22;8048;50.644;6.184;2024-03-06T04:32:33;-0.10;99.90
15900;DHT22;8048;50.644;6.184;2024-03-06T04:34:58;-0.10;99.90
15900;DHT22;8048;50.644;6.184;2024-03-06T04:37:24;-0.10;99.90
15900;DHT22;8048;50.644;6.184;2024-03-06T04:39:52;-0.10;99.90
15900;DHT22;8048;50.644;6.184;2024-03-06T04:42:18;-0.10;99.90
15900;DHT22;8048;50.644;6.184;2024-03-06T04:44:45;-0.10;99.90
15900;DHT22;8048;50.644;6.184;2024-03-06T04:47:11;-0.10;99.90
15900;DHT22;8048;50.644;6.184;2024-03-06T04:49:37;-0.10;99.90
15900;DHT22;8048;50.644;6.184;2024-03-06T04:52:03;-0.10;99.90
15900;DHT22;8048;50.644;6.184;2024-03-06T04:54:29;-0.10;99.90
15900;DHT22;8048;50.644;6.184;2024-03-06T04:56:55;-0.10;99.90
15900;DHT22;8048;50.644;6.184;2024-03-06T04:59:21;-0.10;99.90
15900;DHT22;8048;50.644;6.184;2024-03-06T05:01:46;-0.10;99.90
15900;DHT22;8048;50.644;6.184;2024-03-06T05:04:12;-0.10;99.90
15900;DHT22;8048;50.644;6.184;2024-03-06T05:06:38;-0.10;99.90
15900;DHT22;8048;50.644;6.184;2024-03-06T05:09:03;-0.10;99.90
15900;DHT22;8048;50.644;6.184;2024-03-06T05:11:30;-0.10;99.90
15900;DHT22;8048;50.644;6.184;2024-03-06T05:13:59;-0.10;99.90
15900;DHT22;8048;50.644;6.184;2024-03-06T05:16:24;-0.10;99.90
15900;DHT22;8048;50.644;6.184;2024-03-06T05:18:52;-0.10;99.90
15900;DHT22;8048;50.644;6.184;2024-03-06T05:21:18;-0.10;99.90
15900;DHT22;8048;50.644;6.184;2024-03-06T05:23:43;-0.10;99.90
15900;DHT22;8048;50.644;6.184;2024-03-06T05:26:09;-0.20;99.90
15900;DHT22;8048;50.644;6.184;2024-03-06T05:28:34;-0.10;99.90
15900;DHT22;8048;50.644;6.184;2024-03-06T05:31:00;-0.10;99.90
15900;DHT22;8048;50.644;6.184;2024-03-06T05:33:26;-0.10;99.90
15900;DHT22;8048;50.644;6.184;2024-03-06T05:35:54;-0.10;99.90
15900;DHT22;8048;50.644;6.184;2024-03-06T05:38:19;-0.10;99.90
15900;DHT22;8048;50.644;6.184;2024-03-06T05:40:47;-0.10;99.90
15900;DHT22;8048;50.644;6.184;2024-03-06T05:43:12;-0.10;99.90
15900;DHT22;8048;50.644;6.184;2024-03-06T05:45:38;-0.10;99.90
15900;DHT22;8048;50.644;6.184;2024-03-06T05:48:04;-0.20;99.90
15900;DHT22;8048;50.644;6.184;2024-03-06T05:50:30;-0.20;99.90
15900;DHT22;8048;50.644;6.184;2024-03-06T05:52:57;-0.20;99.90
15900;DHT22;8048;50.644;6.184;2024-03-06T05:55:23;-0.20;99.90
15900;DHT22;8048;50.644;6.184;2024-03-06T05:57:48;-0.20;99.90
15900;DHT22;8048;50.644;6.184;2024-03-06T06:00:15;-0.20;99.90
15900;DHT22;8048;50.644;6.184;2024-03-06T06:02:43;-0.30;99.90
15900;DHT22;8048;50.644;6.184;2024-03-06T06:05:10;-0.30;99.90
15900;DHT22;8048;50.644;6.184;2024-03-06T06:07:36;-0.30;99.90
15900;DHT22;8048;50.644;6.184;2024-03-06T06:10:04;-0.20;99.90
15900;DHT22;8048;50.644;6.184;2024-03-06T06:12:31;-0.20;99.90
15900;DHT22;8048;50.644;6.184;2024-03-06T06:14:57;-0.30;99.90
15900;DHT22;8048;50.644;6.184;2024-03-06T06:17:22;-0.30;99.90
15900;DHT22;8048;50.644;6.184;2024-03-06T06:19:48;-0.30;99.90
15900;DHT22;8048;50.644;6.184;2024-03-06T06:22:13;-0.30;99.90
15900;DHT22;8048;50.644;6.184;2024-03-06T06:24:39;-0.30;99.90
15900;DHT22;8048;50.644;6.184;2024-03-06T06:27:06;-0.30;99.90
15900;DHT22;8048;50.644;6.184;2024-03-06T06:29:31;-0.20;99.90
15900;DHT22;8048;50.644;6.184;2024-03-06T06:31:57;-0.20;99.90
15900;DHT22;8048;50.644;6.184;2024-03-06T06:34:23;-0.20;99.90
15900;DHT22;8048;50.644;6.184;2024-03-06T06:36:50;-0.10;99.90
15900;DHT22;8048;50.644;6.184;2024-03-06T06:39:18;-0.10;99.90
15900;DHT22;8048;50.644;6.184;2024-03-06T06:41:43;-0.10;99.90
15900;DHT22;8048;50.644;6.184;2024-03-06T06:44:09;0.00;99.90
15900;DHT22;8048;50.644;6.184;2024-03-06T06:46:34;0.00;99.90
15900;DHT22;8048;50.644;6.184;2024-03-06T06:49:00;0.00;99.90
15900;DHT22;8048;50.644;6.184;2024-03-06T06:51:25;0.00;99.90
15900;DHT22;8048;50.644;6.184;2024-03-06T06:53:51;0.10;99.90
15900;DHT22;8048;50.644;6.184;2024-03-06T06:56:17;0.10;99.90
15900;DHT22;8048;50.644;6.184;2024-03-06T06:58:42;0.10;99.90
15900;DHT22;8048;50.644;6.184;2024-03-06T07:01:09;0.20;99.90
15900;DHT22;8048;50.644;6.184;2024-03-06T07:03:35;0.20;99.90
15900;DHT22;8048;50.644;6.184;2024-03-06T07:06:00;0.30;99.90
15900;DHT22;8048;50.644;6.184;2024-03-06T07:08:28;0.30;99.90
15900;DHT22;8048;50.644;6.184;2024-03-06T07:10:54;0.40;99.90
15900;DHT22;8048;50.644;6.184;2024-03-06T07:13:20;0.40;99.90
15900;DHT22;8048;50.644;6.184;2024-03-06T07:15:46;0.40;99.90
15900;DHT22;8048;50.644;6.184;2024-03-06T07:18:12;0.50;99.90
15900;DHT22;8048;50.644;6.184;2024-03-06T07:20:40;0.50;99.90
15900;DHT22;8048;50.644;6.184;2024-03-06T07:23:06;0.50;99.90
15900;DHT22;8048;50.644;6.184;2024-03-06T07:25:32;0.60;99.90
15900;DHT22;8048;50.644;6.184;2024-03-06T07:27:57;0.60;99.90
15900;DHT22;8048;50.644;6.184;2024-03-06T07:30:23;0.60;99.90
15900;DHT22;8048;50.644;6.184;2024-03-06T07:32:48;0.60;99.90
15900;DHT22;8048;50.644;6.184;2024-03-06T07:35:14;0.70;99.90
15900;DHT22;8048;50.644;6.184;2024-03-06T07:37:40;0.80;99.90
15900;DHT22;8048;50.644;6.184;2024-03-06T07:40:08;0.90;99.90
15900;DHT22;8048;50.644;6.184;2024-03-06T07:42:35;1.00;99.90
15900;DHT22;8048;50.644;6.184;2024-03-06T07:45:00;1.10;99.90
15900;DHT22;8048;50.644;6.184;2024-03-06T07:47:26;1.20;99.90
15900;DHT22;8048;50.644;6.184;2024-03-06T07:49:52;1.30;99.90
15900;DHT22;8048;50.644;6.184;2024-03-06T07:52:17;1.40;99.90
15900;DHT22;8048;50.644;6.184;2024-03-06T07:54:43;1.40;99.90
15900;DHT22;8048;50.644;6.184;2024-03-06T07:57:09;1.50;99.90
15900;DHT22;8048;50.644;6.184;2024-03-06T07:59:35;1.60;99.90
15900;DHT22;8048;50.644;6.184;2024-03-06T08:02:00;1.80;99.90
15900;DHT22;8048;50.644;6.184;2024-03-06T08:04:26;1.90;99.90
15900;DHT22;8048;50.644;6.184;2024-03-06T08:06:52;2.00;99.90
15900;DHT22;8048;50.644;6.184;2024-03-06T08:09:18;2.20;99.90
15900;DHT22;8048;50.644;6.184;2024-03-06T08:11:45;2.30;99.90
15900;DHT22;8048;50.644;6.184;2024-03-06T08:14:10;2.50;99.90
15900;DHT22;8048;50.644;6.184;2024-03-06T08:16:36;2.60;99.90
15900;DHT22;8048;50.644;6.184;2024-03-06T08:19:03;2.80;99.90
15900;DHT22;8048;50.644;6.184;2024-03-06T08:21:29;2.90;99.90
15900;DHT22;8048;50.644;6.184;2024-03-06T08:23:54;3.10;99.90
15900;DHT22;8048;50.644;6.184;2024-03-06T08:26:20;3.30;99.90
15900;DHT22;8048;50.644;6.184;2024-03-06T08:28:46;3.50;99.90
15900;DHT22;8048;50.644;6.184;2024-03-06T08:31:11;3.70;99.90
15900;DHT22;8048;50.644;6.184;2024-03-06T08:33:37;3.90;99.90
15900;DHT22;8048;50.644;6.184;2024-03-06T08:36:03;4.00;99.90
15900;DHT22;8048;50.644;6.184;2024-03-06T08:38:29;4.20;99.90
15900;DHT22;8048;50.644;6.184;2024-03-06T08:40:54;4.30;99.90
15900;DHT22;8048;50.644;6.184;2024-03-06T08:43:20;4.60;99.90
15900;DHT22;8048;50.644;6.184;2024-03-06T08:45:46;4.80;99.90
15900;DHT22;8048;50.644;6.184;2024-03-06T08:48:11;5.00;99.90
15900;DHT22;8048;50.644;6.184;2024-03-06T08:50:38;5.20;99.90
15900;DHT22;8048;50.644;6.184;2024-03-06T08:53:04;5.40;99.90
15900;DHT22;8048;50.644;6.184;2024-03-06T08:55:29;5.50;99.90
15900;DHT22;8048;50.644;6.184;2024-03-06T08:57:55;5.90;99.90
15900;DHT22;8048;50.644;6.184;2024-03-06T09:00:20;6.30;99.90
15900;DHT22;8048;50.644;6.184;2024-03-06T09:02:46;6.70;99.90
15900;DHT22;8048;50.644;6.184;2024-03-06T09:05:12;7.10;99.90
15900;DHT22;8048;50.644;6.184;2024-03-06T09:07:38;7.50;99.90
15900;DHT22;8048;50.644;6.184;2024-03-06T09:10:09;8.10;99.90
15900;DHT22;8048;50.644;6.184;2024-03-06T09:12:35;8.50;99.90
15900;DHT22;8048;50.644;6.184;2024-03-06T09:15:02;8.70;99.90
15900;DHT22;8048;50.644;6.184;2024-03-06T09:17:28;8.80;97.80
15900;DHT22;8048;50.644;6.184;2024-03-06T09:19:55;9.10;99.00
15900;DHT22;8048;50.644;6.184;2024-03-06T09:22:20;9.50;97.20
15900;DHT22;8048;50.644;6.184;2024-03-06T09:24:46;9.80;96.40
15900;DHT22;8048;50.644;6.184;2024-03-06T09:27:12;9.70;94.70
15900;DHT22;8048;50.644;6.184;2024-03-06T09:29:39;10.10;96.80
15900;DHT22;8048;50.644;6.184;2024-03-06T09:32:05;10.60;95.50
15900;DHT22;8048;50.644;6.184;2024-03-06T09:34:31;11.10;96.20
15900;DHT22;8048;50.644;6.184;2024-03-06T09:36:56;11.60;96.10
15900;DHT22;8048;50.644;6.184;2024-03-06T09:39:22;12.10;96.00
15900;DHT22;8048;50.644;6.184;2024-03-06T09:41:49;12.80;94.50
15900;DHT22;8048;50.644;6.184;2024-03-06T09:44:16;13.00;92.00
15900;DHT22;8048;50.644;6.184;2024-03-06T09:46:46;12.70;90.70
15900;DHT22;8048;50.644;6.184;2024-03-06T09:49:14;12.40;88.70
15900;DHT22;8048;50.644;6.184;2024-03-06T09:51:43;12.30;91.20
15900;DHT22;8048;50.644;6.184;2024-03-06T09:54:16;12.60;92.90
15900;DHT22;8048;50.644;6.184;2024-03-06T09:56:48;13.10;91.10
15900;DHT22;8048;50.644;6.184;2024-03-06T09:59:15;12.90;87.10
15900;DHT22;8048;50.644;6.184;2024-03-06T10:01:50;12.70;86.20
15900;DHT22;8048;50.644;6.184;2024-03-06T10:04:22;12.70;90.20
15900;DHT22;8048;50.644;6.184;2024-03-06T10:06:48;13.20;90.90
15900;DHT22;8048;50.644;6.184;2024-03-06T10:09:18;13.60;89.00
15900;DHT22;8048;50.644;6.184;2024-03-06T10:11:44;14.10;91.40
15900;DHT22;8048;50.644;6.184;2024-03-06T10:16:36;14.80;82.40
15900;DHT22;8048;50.644;6.184;2024-03-06T10:19:20;14.60;81.50
15900;DHT22;8048;50.644;6.184;2024-03-06T10:21:49;14.40;81.00
15900;DHT22;8048;50.644;6.184;2024-03-06T10:24:24;14.70;86.60
15900;DHT22;8048;50.644;6.184;2024-03-06T10:26:51;15.30;83.60
15900;DHT22;8048;50.644;6.184;2024-03-06T10:29:19;15.80;85.40
15900;DHT22;8048;50.644;6.184;2024-03-06T10:31:52;16.30;76.80
15900;DHT22;8048;50.644;6.184;2024-03-06T10:34:20;16.10;71.80
15900;DHT22;8048;50.644;6.184;2024-03-06T10:36:45;15.70;76.50
15900;DHT22;8048;50.644;6.184;2024-03-06T10:39:13;15.30;73.10
15900;DHT22;8048;50.644;6.184;2024-03-06T10:41:40;15.10;74.90
15900;DHT22;8048;50.644;6.184;2024-03-06T10:44:11;14.90;75.50
15900;DHT22;8048;50.644;6.184;2024-03-06T10:46:41;14.70;74.10
15900;DHT22;8048;50.644;6.184;2024-03-06T10:49:09;14.50;77.10
15900;DHT22;8048;50.644;6.184;2024-03-06T10:51:38;14.30;72.00
15900;DHT22;8048;50.644;6.184;2024-03-06T10:54:08;14.20;76.90
15900;DHT22;8048;50.644;6.184;2024-03-06T10:56:34;14.10;77.30
15900;DHT22;8048;50.644;6.184;2024-03-06T10:59:00;13.90;74.70
15900;DHT22;8048;50.644;6.184;2024-03-06T11:01:27;13.60;74.30
15900;DHT22;8048;50.644;6.184;2024-03-06T11:03:59;13.60;81.10
15900;DHT22;8048;50.644;6.184;2024-03-06T11:06:26;13.60;85.30
15900;DHT22;8048;50.644;6.184;2024-03-06T11:08:51;13.70;84.10
15900;DHT22;8048;50.644;6.184;2024-03-06T11:11:22;13.80;84.90
15900;DHT22;8048;50.644;6.184;2024-03-06T11:13:48;14.20;87.00
15900;DHT22;8048;50.644;6.184;2024-03-06T11:16:14;14.90;86.60
15900;DHT22;8048;50.644;6.184;2024-03-06T11:18:40;15.50;84.50
15900;DHT22;8048;50.644;6.184;2024-03-06T11:23:34;16.60;81.70
15900;DHT22;8048;50.644;6.184;2024-03-06T11:26:05;16.50;80.50
15900;DHT22;8048;50.644;6.184;2024-03-06T11:28:32;15.80;76.20
15900;DHT22;8048;50.644;6.184;2024-03-06T11:31:03;15.40;80.80
15900;DHT22;8048;50.644;6.184;2024-03-06T11:33:42;15.10;79.50
15900;DHT22;8048;50.644;6.184;2024-03-06T11:36:21;15.10;79.90
15900;DHT22;8048;50.644;6.184;2024-03-06T11:41:19;15.00;81.40
15900;DHT22;8048;50.644;6.184;2024-03-06T11:43:45;15.10;79.20
15900;DHT22;8048;50.644;6.184;2024-03-06T11:46:11;15.90;89.30
15900;DHT22;8048;50.644;6.184;2024-03-06T11:48:37;16.90;83.90
15900;DHT22;8048;50.644;6.184;2024-03-06T11:51:03;17.30;76.90
15900;DHT22;8048;50.644;6.184;2024-03-06T11:53:30;17.50;79.00
15900;DHT22;8048;50.644;6.184;2024-03-06T11:55:56;17.80;74.80
15900;DHT22;8048;50.644;6.184;2024-03-06T11:58:22;18.00;73.50
15900;DHT22;8048;50.644;6.184;2024-03-06T12:00:48;18.00;70.00
15900;DHT22;8048;50.644;6.184;2024-03-06T12:03:14;17.80;72.50
15900;DHT22;8048;50.644;6.184;2024-03-06T12:05:39;17.70;74.80
15900;DHT22;8048;50.644;6.184;2024-03-06T12:08:07;17.40;69.00
15900;DHT22;8048;50.644;6.184;2024-03-06T12:10:38;17.30;72.50
15900;DHT22;8048;50.644;6.184;2024-03-06T12:13:04;17.20;73.00
15900;DHT22;8048;50.644;6.184;2024-03-06T12:15:30;17.00;70.10
15900;DHT22;8048;50.644;6.184;2024-03-06T12:17:56;16.80;66.40
15900;DHT22;8048;50.644;6.184;2024-03-06T12:20:21;17.10;76.60
15900;DHT22;8048;50.644;6.184;2024-03-06T12:25:19;18.90;80.30
15900;DHT22;8048;50.644;6.184;2024-03-06T12:27:49;19.80;75.10
15900;DHT22;8048;50.644;6.184;2024-03-06T12:30:22;20.60;74.00
15900;DHT22;8048;50.644;6.184;2024-03-06T12:32:58;21.10;70.70
15900;DHT22;8048;50.644;6.184;2024-03-06T12:35:25;20.90;67.00
15900;DHT22;8048;50.644;6.184;2024-03-06T12:37:51;20.70;68.30
15900;DHT22;8048;50.644;6.184;2024-03-06T12:40:18;20.40;68.10
15900;DHT22;8048;50.644;6.184;2024-03-06T12:42:44;20.00;66.10
15900;DHT22;8048;50.644;6.184;2024-03-06T12:45:11;19.40;67.70
15900;DHT22;8048;50.644;6.184;2024-03-06T12:47:44;18.90;68.60
15900;DHT22;8048;50.644;6.184;2024-03-06T12:50:11;18.40;67.70
15900;DHT22;8048;50.644;6.184;2024-03-06T12:52:37;18.00;68.90
15900;DHT22;8048;50.644;6.184;2024-03-06T12:55:03;17.70;69.60
15900;DHT22;8048;50.644;6.184;2024-03-06T12:57:32;17.40;67.10
15900;DHT22;8048;50.644;6.184;2024-03-06T12:59:58;17.10;68.40
15900;DHT22;8048;50.644;6.184;2024-03-06T13:02:24;16.90;66.80
15900;DHT22;8048;50.644;6.184;2024-03-06T13:04:50;16.70;68.70
15900;DHT22;8048;50.644;6.184;2024-03-06T13:07:16;16.50;67.00
15900;DHT22;8048;50.644;6.184;2024-03-06T13:09:42;16.40;70.10
15900;DHT22;8048;50.644;6.184;2024-03-06T13:12:08;16.40;70.30
15900;DHT22;8048;50.644;6.184;2024-03-06T13:14:34;16.30;69.10
15900;DHT22;8048;50.644;6.184;2024-03-06T13:17:00;16.10;71.40
15900;DHT22;8048;50.644;6.184;2024-03-06T13:19:25;15.80;68.20
15900;DHT22;8048;50.644;6.184;2024-03-06T13:21:51;16.40;76.00
15900;DHT22;8048;50.644;6.184;2024-03-06T13:24:18;17.00;73.70
15900;DHT22;8048;50.644;6.184;2024-03-06T13:26:48;17.10;71.50
15900;DHT22;8048;50.644;6.184;2024-03-06T13:29:13;16.90;70.50
15900;DHT22;8048;50.644;6.184;2024-03-06T13:31:39;16.60;72.70
15900;DHT22;8048;50.644;6.184;2024-03-06T13:34:05;16.40;73.90
15900;DHT22;8048;50.644;6.184;2024-03-06T13:36:31;16.10;73.60
15900;DHT22;8048;50.644;6.184;2024-03-06T13:38:56;15.80;74.00
15900;DHT22;8048;50.644;6.184;2024-03-06T13:41:22;15.70;76.70
15900;DHT22;8048;50.644;6.184;2024-03-06T13:43:48;15.50;76.00
15900;DHT22;8048;50.644;6.184;2024-03-06T13:46:14;15.30;75.20
15900;DHT22;8048;50.644;6.184;2024-03-06T13:48:40;15.10;76.40
15900;DHT22;8048;50.644;6.184;2024-03-06T13:51:06;15.00;77.80
15900;DHT22;8048;50.644;6.184;2024-03-06T13:53:31;14.90;77.20
15900;DHT22;8048;50.644;6.184;2024-03-06T13:55:57;14.70;76.80
15900;DHT22;8048;50.644;6.184;2024-03-06T13:58:23;14.70;76.80
15900;DHT22;8048;50.644;6.184;2024-03-06T14:00:49;14.60;78.90
15900;DHT22;8048;50.644;6.184;2024-03-06T14:03:14;14.50;78.50
15900;DHT22;8048;50.644;6.184;2024-03-06T14:05:40;14.50;79.80
15900;DHT22;8048;50.644;6.184;2024-03-06T14:08:06;14.60;81.10
15900;DHT22;8048;50.644;6.184;2024-03-06T14:10:32;14.50;79.10
15900;DHT22;8048;50.644;6.184;2024-03-06T14:13:02;14.40;79.90
15900;DHT22;8048;50.644;6.184;2024-03-06T14:15:27;14.30;78.70
15900;DHT22;8048;50.644;6.184;2024-03-06T14:17:53;14.20;80.30
15900;DHT22;8048;50.644;6.184;2024-03-06T14:20:20;14.10;79.60
15900;DHT22;8048;50.644;6.184;2024-03-06T14:22:46;14.00;81.90
15900;DHT22;8048;50.644;6.184;2024-03-06T14:25:11;13.90;80.70
15900;DHT22;8048;50.644;6.184;2024-03-06T14:27:37;13.80;80.70
15900;DHT22;8048;50.644;6.184;2024-03-06T14:30:04;13.70;82.20
15900;DHT22;8048;50.644;6.184;2024-03-06T14:32:32;13.60;83.10
15900;DHT22;8048;50.644;6.184;2024-03-06T14:34:58;13.60;81.90
15900;DHT22;8048;50.644;6.184;2024-03-06T14:37:24;13.50;81.50
15900;DHT22;8048;50.644;6.184;2024-03-06T14:39:49;13.50;82.90
15900;DHT22;8048;50.644;6.184;2024-03-06T14:42:16;13.50;82.80
15900;DHT22;8048;50.644;6.184;2024-03-06T14:44:42;13.50;83.50
15900;DHT22;8048;50.644;6.184;2024-03-06T14:47:12;13.40;83.80
15900;DHT22;8048;50.644;6.184;2024-03-06T14:49:37;13.30;82.50
15900;DHT22;8048;50.644;6.184;2024-03-06T14:52:03;13.20;83.90
15900;DHT22;8048;50.644;6.184;2024-03-06T14:54:29;13.20;84.00
15900;DHT22;8048;50.644;6.184;2024-03-06T14:56:55;13.30;85.70
15900;DHT22;8048;50.644;6.184;2024-03-06T14:59:23;13.20;83.80
15900;DHT22;8048;50.644;6.184;2024-03-06T15:01:49;13.20;83.80
15900;DHT22;8048;50.644;6.184;2024-03-06T15:04:16;13.20;84.80
15900;DHT22;8048;50.644;6.184;2024-03-06T15:06:42;13.20;84.90
15900;DHT22;8048;50.644;6.184;2024-03-06T15:09:08;13.20;84.40
15900;DHT22;8048;50.644;6.184;2024-03-06T15:11:37;13.20;84.80
15900;DHT22;8048;50.644;6.184;2024-03-06T15:14:03;13.10;85.90
15900;DHT22;8048;50.644;6.184;2024-03-06T15:16:30;13.10;85.30
15900;DHT22;8048;50.644;6.184;2024-03-06T15:18:56;13.10;85.30
15900;DHT22;8048;50.644;6.184;2024-03-06T15:21:23;13.10;85.90
15900;DHT22;8048;50.644;6.184;2024-03-06T15:23:49;13.10;85.00
15900;DHT22;8048;50.644;6.184;2024-03-06T15:26:16;13.10;85.00
15900;DHT22;8048;50.644;6.184;2024-03-06T15:28:42;13.10;86.10
15900;DHT22;8048;50.644;6.184;2024-03-06T15:31:08;13.10;85.20
15900;DHT22;8048;50.644;6.184;2024-03-06T15:33:33;13.10;85.20
15900;DHT22;8048;50.644;6.184;2024-03-06T15:35:59;13.00;85.50
15900;DHT22;8048;50.644;6.184;2024-03-06T15:38:25;12.80;85.40
15900;DHT22;8048;50.644;6.184;2024-03-06T15:40:52;12.60;84.00
15900;DHT22;8048;50.644;6.184;2024-03-06T15:43:18;12.50;85.10
15900;DHT22;8048;50.644;6.184;2024-03-06T15:45:44;12.40;85.70
15900;DHT22;8048;50.644;6.184;2024-03-06T15:48:10;12.20;85.70
15900;DHT22;8048;50.644;6.184;2024-03-06T15:50:42;12.10;87.40
15900;DHT22;8048;50.644;6.184;2024-03-06T15:53:08;12.10;86.40
15900;DHT22;8048;50.644;6.184;2024-03-06T15:55:34;12.10;87.10
15900;DHT22;8048;50.644;6.184;2024-03-06T15:58:03;12.00;84.80